GOOY/DKR METAR and TAF weather

Enter ICAO airport designator
Station Type Date Time Source
GOOY METAR 2019/10/20 19:00 UTC NOAA

GOOY 201900Z 36010KT 9999 FEW013 28/24 Q1010


Station Type Date Time Source
GOOY Decoded METAR 2019/10/20 19:00 UTC NOAA

Dakar / Yoff, Senegal (GOOY) 14-44N 017-30W 24M
Oct 20, 2019 - 03:00 PM EDT / 2019.10.20 1900 UTC
Wind: from the N (360 degrees) at 12 MPH (10 KT):0
Visibility: greater than 7 mile(s):0
Sky conditions: mostly clear
Temperature: 82 F (28 C)
Dew Point: 75 F (24 C)
Relative Humidity: 78%
Pressure (altimeter): 29.83 in. Hg (1010 hPa)
ob: GOOY 201900Z 36010KT 9999 FEW013 28/24 Q1010
cycle: 19

Station Type Date Time Source
GOOY TAF 2019/10/20 18:21 UTC NOAA

TAF GOOY 201730Z 2018/2124 35010KT CAVOK

Example: see airport list